Curug, Indonesia

9:02 AM WIB on August 30, 2015 (GMT +0700)
Soekarno-Hatta International | | Change Station
CLOSE
Current Station
Airport
Location: Jakarta Soekarno-Hatta,
Elevation: 26 ft
Nearby Weather Stations

Elev 26 ft 6.13 °S, 106.66 °E | Updated 2 minutes ago

Partly Cloudy
Partly Cloudy
86 °F
Feels Like 92 °F
N
5
Wind Variable Wind from Variable

Today
High -- | Low -- °F
--% Chance of Precip.
Yesterday
High -- | Low -- °F
Precip. -- in
5:54 AM 5:53 PM
Full, 100% visible
Pressure 29.92 in
Visibility 5.0 miles
Clouds Few 2000 ft
Heat Index 92 °F
Dew Point 72 °F
Humidity 62%
Rainfall 0.00 in
Snow Depth Not available.
UV 7 out of 12
Pollen Not available.
Air Quality Not available.
Flu Activity Not available.
METAR WIII 300200Z VRB04KT 8000 FEW020 30/22 Q1013 NOSIG
Pressure 29.92 in
Visibility 5.0 miles
Clouds Few 2000 ft
Heat Index 92 °F
Dew Point 72 °F
Humidity 62%
Rainfall 0.00 in
Snow Depth Not available.
UV 7 out of 12
Pollen Not available.
Air Quality Not available.
Flu Activity Not available.
METAR WIII 300200Z VRB04KT 8000 FEW020 30/22 Q1013 NOSIG

10-Day Weather Forecast

×

Almanac

Astronomy

Aug. 30, 2015 Rise Set
Actual Time
Civil Twilight
Nautical Twilight
Astronomical Twilight
Moon
Length of Visible Light
Length of Day
Tomorrow will be .
, % of the Moon is Illuminated

Today's Extremes

Country Highs Country Lows

Community

WunderPhotos

Upload Photos

1,850,847 photos uploaded!

WunderBlogs® & News

Nearby

Air Quality

  Air Quality AQ Index Pollutant
Not available.

Snow Depth

Station Depth Elevation

Earthquake Activity

City Distance Mag. Time & Date
Minimum magnitude displayed is 2.5.

Coastal Water Temperatures

Place Temperature

Stations

Nearby Weather Stations

Station Location Temp. Windchill Dew Point Humidity Wind Precip. Elev Updated Type